Time;durP1;ratioP1;P1;durP2;ratioP2;P2;SDS_P1;SDS_P2;PMS_P1;PMS_P2;Temp;Humidity;BMP_temperature;BMP_pressure;BME280_temperature;BME280_humidity;BME280_pressure;Samples;Min_cycle;Max_cycle;Signal;HPM_P1;HPM_P2
2023/06/23 00:02:12;;;;;;;;;;;;;;;22.32;39.46;100418.13;4939649;28;98173;-69
2023/06/23 00:04:39;;;;;;;;;;;;;;;22.32;39.56;100409.09;4922769;27;98139;-70
2023/06/23 00:07:08;;;;;;;;;;;;;;;22.27;39.38;100391.72;4925641;27;98202;-71
2023/06/23 00:09:37;;;;;;;;;;;;;;;22.25;39.52;100398.72;4926724;28;100145;-70
2023/06/23 00:12:07;;;;;;;;;;;;;;;22.21;39.37;100428.81;4943784;27;98056;-70
2023/06/23 00:14:35;;;;;;;;;;;;;;;22.16;39.42;100428.22;4927708;28;98123;-72
2023/06/23 00:17:02;;;;;;;;;;;;;;;22.12;39.45;100425.34;4942436;27;98294;-71
2023/06/23 00:19:31;;;;;;;;;;;;;;;22.08;39.48;100407.16;4927534;28;99523;-70
2023/06/23 00:21:58;;;;;;;;;;;;;;;22.03;39.59;100397.25;4931635;27;98338;-71
2023/06/23 00:24:24;;;;;;;;;;;;;;;21.97;39.57;100399.44;4927624;28;98376;-71
2023/06/23 00:26:51;;;;;;;;;;;;;;;21.95;39.42;100396.22;4931595;27;97971;-71
2023/06/23 00:29:17;;;;;;;;;;;;;;;21.92;39.58;100402.41;4944606;28;99019;-72
2023/06/23 00:31:44;;;;;;;;;;;;;;;21.91;39.50;100400.00;4929725;28;98176;-71
2023/06/23 00:34:10;;;;;;;;;;;;;;;21.90;39.64;100393.72;4924013;27;98067;-70
2023/06/23 00:36:36;;;;;;;;;;;;;;;21.89;39.57;100391.31;4928880;28;98557;-71
2023/06/23 00:39:03;;;;;;;;;;;;;;;21.86;39.62;100389.28;4930580;28;97999;-70
2023/06/23 00:41:30;;;;;;;;;;;;;;;21.85;39.69;100365.72;4929022;28;98096;-70
2023/06/23 00:43:59;;;;;;;;;;;;;;;21.86;39.58;100350.88;4922885;27;99033;-70
2023/06/23 00:46:25;;;;;;;;;;;;;;;21.85;39.62;100328.13;4930954;28;97889;-70
2023/06/23 00:48:53;;;;;;;;;;;;;;;21.85;39.68;100325.38;4946249;27;98134;-71
2023/06/23 00:51:22;;;;;;;;;;;;;;;21.80;39.60;100317.38;4931149;28;99091;-72
2023/06/23 00:53:48;;;;;;;;;;;;;;;21.75;39.73;100306.66;4929896;27;98006;-70
2023/06/23 00:56:16;;;;;;;;;;;;;;;21.70;39.63;100299.47;4931096;27;99303;-70
2023/06/23 00:58:42;;;;;;;;;;;;;;;21.68;39.82;100285.28;4944543;28;98340;-72
2023/06/23 01:01:10;;;;;;;;;;;;;;;21.66;39.66;100276.63;4924449;27;98071;-70
2023/06/23 01:03:37;;;;;;;;;;;;;;;21.59;39.76;100270.13;4946522;28;98210;-71
2023/06/23 01:06:27;;;;;;;;;;;;;;;21.49;39.83;100260.41;4931541;27;98174;-70
2023/06/23 01:09:01;;;;;;;;;;;;;;;21.43;39.83;100253.59;4959552;27;99761;-71
2023/06/23 01:11:41;;;;;;;;;;;;;;;21.38;39.91;100238.19;4940711;28;99638;-71
2023/06/23 01:14:22;;;;;;;;;;;;;;;21.35;39.77;100230.66;4950821;27;98936;-70
2023/06/23 01:17:03;;;;;;;;;;;;;;;21.32;39.90;100214.84;4929515;27;98247;-71
2023/06/23 01:19:53;;;;;;;;;;;;;;;21.29;39.89;100199.88;4949195;28;99417;-70
2023/06/23 01:22:36;;;;;;;;;;;;;;;21.28;39.86;100186.53;4958868;28;100653;-72
2023/06/23 01:25:22;;;;;;;;;;;;;;;21.25;39.92;100171.56;4950065;27;98343;-71
2023/06/23 01:28:12;;;;;;;;;;;;;;;21.25;39.96;100151.59;4949113;27;98071;-70
2023/06/23 01:30:38;;;;;;;;;;;;;;;21.25;39.92;100135.16;4932587;28;98251;-71
2023/06/23 01:33:26;;;;;;;;;;;;;;;21.24;39.78;100109.69;4928946;27;101456;-71
2023/06/23 01:36:03;;;;;;;;;;;;;;;21.25;39.94;100105.00;4962506;27;99973;-71
2023/06/23 01:38:32;;;;;;;;;;;;;;;21.21;39.94;100093.16;4947250;28;98268;-70
2023/06/23 01:40:58;;;;;;;;;;;;;;;21.19;39.94;100085.28;4930569;27;98921;-70
2023/06/23 01:43:29;;;;;;;;;;;;;;;21.18;39.93;100077.38;4930842;28;98159;-71
2023/06/23 01:46:15;;;;;;;;;;;;;;;21.16;39.97;100071.47;4931831;27;98291;-71
2023/06/23 01:48:42;;;;;;;;;;;;;;;21.11;40.03;100056.09;4948096;28;98089;-71
2023/06/23 01:51:10;;;;;;;;;;;;;;;21.08;40.00;100056.78;4929887;28;98104;-70
2023/06/23 01:53:36;;;;;;;;;;;;;;;21.05;39.82;100038.28;4929638;28;98233;-70
2023/06/23 01:56:04;;;;;;;;;;;;;;;21.02;40.11;100038.97;4930441;27;98305;-69
2023/06/23 01:58:32;;;;;;;;;;;;;;;20.98;40.08;100022.44;4928806;28;98089;-70
2023/06/23 02:00:58;;;;;;;;;;;;;;;20.94;40.15;99993.34;4932734;27;98219;-71
2023/06/23 02:03:26;;;;;;;;;;;;;;;20.87;40.18;100006.81;4931959;27;98480;-71
2023/06/23 02:05:54;;;;;;;;;;;;;;;20.80;40.26;100038.34;4932034;27;99348;-71
2023/06/23 02:08:23;;;;;;;;;;;;;;;20.75;40.25;100090.63;4924670;28;98063;-72
2023/06/23 02:10:51;;;;;;;;;;;;;;;20.70;40.38;100148.34;4932142;27;98925;-71
2023/06/23 02:13:18;;;;;;;;;;;;;;;20.61;41.45;100180.53;4931504;28;100152;-73
2023/06/23 02:15:44;;;;;;;;;;;;;;;20.50;40.77;100182.91;4931398;27;98037;-71
2023/06/23 02:18:10;;;;;;;;;;;;;;;20.42;40.71;100202.16;4953351;27;98041;-71
2023/06/23 02:20:37;;;;;;;;;;;;;;;20.32;40.80;100223.34;4938235;28;98235;-70
2023/06/23 02:23:04;;;;;;;;;;;;;;;20.25;40.86;100239.53;4932744;27;97894;-71
2023/06/23 02:25:30;;;;;;;;;;;;;;;20.19;40.88;100245.53;4948112;28;98169;-70
2023/06/23 02:27:56;;;;;;;;;;;;;;;20.13;40.85;100269.59;4948640;27;99536;-70
2023/06/23 02:30:23;;;;;;;;;;;;;;;20.12;40.94;100292.59;4927865;28;99521;-70
2023/06/23 02:32:50;;;;;;;;;;;;;;;20.11;40.77;100297.25;4933225;27;99838;-71
2023/06/23 02:35:16;;;;;;;;;;;;;;;20.10;40.83;100311.28;4931557;28;98277;-70
2023/06/23 02:37:54;;;;;;;;;;;;;;;20.09;40.85;100323.38;4931671;28;98268;-70
2023/06/23 02:40:21;;;;;;;;;;;;;;;20.08;40.81;100313.53;4932606;28;99164;-71
2023/06/23 02:42:52;;;;;;;;;;;;;;;20.08;40.76;100299.84;4936898;28;97936;-71
2023/06/23 02:45:25;;;;;;;;;;;;;;;20.10;40.87;100290.19;4960701;28;99300;-70
2023/06/23 02:47:52;;;;;;;;;;;;;;;20.12;40.77;100276.16;4928728;27;98775;-70
2023/06/23 02:50:20;;;;;;;;;;;;;;;20.14;40.82;100264.91;4927676;28;98204;-71
2023/06/23 02:52:47;;;;;;;;;;;;;;;20.19;40.93;100273.69;4930547;28;100005;-70
2023/06/23 02:55:15;;;;;;;;;;;;;;;20.21;40.77;100274.16;4928978;27;98558;-71
2023/06/23 02:57:42;;;;;;;;;;;;;;;20.26;40.58;100273.16;4930557;27;99909;-71
2023/06/23 03:00:17;;;;;;;;;;;;;;;20.26;40.75;100264.94;4933020;27;98039;-70
2023/06/23 03:02:44;;;;;;;;;;;;;;;20.29;40.56;100277.97;4928592;28;98617;-70
2023/06/23 03:05:10;;;;;;;;;;;;;;;20.31;40.58;100292.88;4931006;27;99813;-70
2023/06/23 03:07:38;;;;;;;;;;;;;;;20.29;40.77;100308.84;4928283;27;98001;-70
2023/06/23 03:10:05;;;;;;;;;;;;;;;20.25;40.69;100318.88;4939979;27;98062;-71
2023/06/23 03:12:32;;;;;;;;;;;;;;;20.21;40.73;100317.16;4930568;28;111921;-71
2023/06/23 03:15:01;;;;;;;;;;;;;;;20.18;40.84;100326.03;4939291;28;106912;-71
2023/06/23 03:17:28;;;;;;;;;;;;;;;20.16;40.76;100326.38;4928417;28;98491;-71
2023/06/23 03:20:08;;;;;;;;;;;;;;;20.17;40.80;100318.97;4929190;27;99782;-71
2023/06/23 03:22:38;;;;;;;;;;;;;;;20.17;40.75;100314.28;4945108;28;103719;-71
2023/06/23 03:25:05;;;;;;;;;;;;;;;20.20;40.55;100304.59;4925893;28;98495;-71
2023/06/23 03:27:33;;;;;;;;;;;;;;;20.21;40.77;100296.06;4928748;28;98060;-70
2023/06/23 03:30:43;;;;;;;;;;;;;;;20.26;40.61;100297.78;4928873;28;99307;-71
2023/06/23 03:33:22;;;;;;;;;;;;;;;20.29;40.69;100297.91;4923705;27;98135;-71
2023/06/23 03:35:49;;;;;;;;;;;;;;;20.32;40.74;100304.66;4931888;28;97979;-70
2023/06/23 03:38:19;;;;;;;;;;;;;;;20.35;40.61;100298.50;4933145;28;98417;-71
2023/06/23 03:40:57;;;;;;;;;;;;;;;20.39;40.58;100291.22;4930242;27;100950;-71
2023/06/23 03:43:27;;;;;;;;;;;;;;;20.45;40.47;100275.38;4924763;27;98032;-70
2023/06/23 03:45:56;;;;;;;;;;;;;;;20.50;40.67;100272.47;4944743;27;99256;-70
2023/06/23 03:48:23;;;;;;;;;;;;;;;20.55;40.48;100275.78;4945688;27;98089;-71
2023/06/23 03:50:50;;;;;;;;;;;;;;;20.62;40.59;100286.16;4945675;28;98309;-71
2023/06/23 03:53:17;;;;;;;;;;;;;;;20.65;40.62;100290.97;4929435;27;98325;-71
2023/06/23 03:55:43;;;;;;;;;;;;;;;20.69;40.47;100288.34;4931316;27;98226;-71
2023/06/23 03:58:10;;;;;;;;;;;;;;;20.72;40.45;100306.84;4921185;27;99435;-71
2023/06/23 04:00:37;;;;;;;;;;;;;;;20.74;40.53;100308.09;4931673;28;98233;-71
2023/06/23 04:03:05;;;;;;;;;;;;;;;20.78;40.42;100303.53;4924761;28;97972;-71
2023/06/23 04:05:32;;;;;;;;;;;;;;;20.83;40.44;100305.28;4929361;28;99942;-70
2023/06/23 04:08:02;;;;;;;;;;;;;;;20.86;40.32;100303.78;4939207;28;98104;-71
2023/06/23 04:10:29;;;;;;;;;;;;;;;20.88;40.38;100307.78;4938734;28;98061;-71
2023/06/23 04:12:58;;;;;;;;;;;;;;;20.90;40.48;100315.66;4925372;28;98038;-70
2023/06/23 04:15:25;;;;;;;;;;;;;;;20.91;40.49;100337.25;4942160;28;99540;-71
2023/06/23 04:17:53;;;;;;;;;;;;;;;20.91;40.59;100334.50;4942288;27;98161;-71
2023/06/23 04:20:20;;;;;;;;;;;;;;;20.89;40.51;100330.50;4946150;28;98207;-71
2023/06/23 04:22:47;;;;;;;;;;;;;;;20.90;40.51;100334.84;4930003;28;98359;-71
2023/06/23 04:25:14;;;;;;;;;;;;;;;20.92;40.50;100338.03;4928654;28;98372;-71
2023/06/23 04:27:40;;;;;;;;;;;;;;;20.93;40.54;100326.75;4928577;28;98386;-71
2023/06/23 04:30:09;;;;;;;;;;;;;;;20.97;40.51;100315.91;4929388;28;98261;-74
2023/06/23 04:32:39;;;;;;;;;;;;;;;21.02;40.39;100330.16;4929651;27;100730;-74
2023/06/23 04:35:05;;;;;;;;;;;;;;;21.10;40.35;100328.47;4946198;28;98236;-73
2023/06/23 04:37:40;;;;;;;;;;;;;;;21.12;40.33;100330.88;4930456;27;99256;-74
2023/06/23 04:40:33;;;;;;;;;;;;;;;21.09;40.44;100335.09;4930145;27;99629;-74
2023/06/23 04:43:32;;;;;;;;;;;;;;;21.05;40.55;100337.72;4947333;27;98226;-74
2023/06/23 04:45:58;;;;;;;;;;;;;;;21.02;40.64;100323.88;4921634;27;98261;-73
2023/06/23 04:48:32;;;;;;;;;;;;;;;21.01;40.60;100325.84;4946363;27;98776;-74
2023/06/23 04:50:59;;;;;;;;;;;;;;;21.01;40.58;100328.56;4928717;27;98162;-76
2023/06/23 04:53:38;;;;;;;;;;;;;;;21.01;40.60;100320.34;4928488;27;98366;-75
2023/06/23 04:56:06;;;;;;;;;;;;;;;21.07;40.60;100318.22;4922456;28;98770;-73
2023/06/23 04:58:35;;;;;;;;;;;;;;;21.10;40.55;100312.03;4943704;27;98280;-73
2023/06/23 05:01:02;;;;;;;;;;;;;;;21.12;40.54;100309.75;4973234;27;99953;-75
2023/06/23 05:03:29;;;;;;;;;;;;;;;21.11;40.58;100294.47;4931586;27;98068;-75
2023/06/23 05:05:58;;;;;;;;;;;;;;;21.11;40.52;100305.44;4949740;27;98617;-73
2023/06/23 05:08:25;;;;;;;;;;;;;;;21.08;40.60;100298.69;4940602;28;98132;-74
2023/06/23 05:10:52;;;;;;;;;;;;;;;21.07;40.66;100299.03;4924049;28;98251;-73
2023/06/23 05:13:19;;;;;;;;;;;;;;;21.07;40.67;100299.81;4936110;28;98830;-73
2023/06/23 05:15:48;;;;;;;;;;;;;;;21.07;40.57;100304.50;4934388;28;98792;-73
2023/06/23 05:18:15;;;;;;;;;;;;;;;21.04;40.59;100310.66;4947462;28;98550;-73
2023/06/23 05:20:44;;;;;;;;;;;;;;;21.00;40.63;100318.75;4957822;28;97931;-73
2023/06/23 05:23:13;;;;;;;;;;;;;;;20.96;40.67;100326.06;4954709;28;98463;-72
2023/06/23 05:25:40;;;;;;;;;;;;;;;20.97;40.82;100326.84;4938434;28;98113;-73
2023/06/23 05:28:08;;;;;;;;;;;;;;;21.00;40.91;100320.72;4950296;28;98475;-76
2023/06/23 05:30:37;;;;;;;;;;;;;;;21.06;40.77;100317.41;4938347;28;98415;-73
2023/06/23 05:33:07;;;;;;;;;;;;;;;21.19;40.67;100312.72;4953783;28;100132;-73
2023/06/23 05:35:34;;;;;;;;;;;;;;;21.28;40.62;100307.13;4946979;28;98496;-75
2023/06/23 05:38:01;;;;;;;;;;;;;;;21.42;40.54;100299.41;4941345;28;98157;-74
2023/06/23 05:40:27;;;;;;;;;;;;;;;21.56;40.38;100310.78;4966351;27;98105;-73
2023/06/23 05:42:53;;;;;;;;;;;;;;;21.59;40.36;100312.06;4952713;27;99040;-73
2023/06/23 05:45:22;;;;;;;;;;;;;;;21.59;40.50;100314.78;4934819;28;98159;-75
2023/06/23 05:48:12;;;;;;;;;;;;;;;21.71;40.41;100309.28;4963485;28;98808;-76
2023/06/23 05:50:39;;;;;;;;;;;;;;;22.07;40.12;100318.56;4966988;28;98211;-73
2023/06/23 05:53:15;;;;;;;;;;;;;;;22.45;39.67;100309.06;4940457;28;98117;-73
2023/06/23 05:55:50;;;;;;;;;;;;;;;22.93;39.51;100310.75;4953964;27;98424;-73
2023/06/23 05:58:17;;;;;;;;;;;;;;;23.26;39.14;100318.66;4929292;28;98410;-73
2023/06/23 06:00:47;;;;;;;;;;;;;;;23.40;39.45;100315.41;4933208;28;98213;-75
2023/06/23 06:03:15;;;;;;;;;;;;;;;23.52;39.14;100322.75;4938646;27;98110;-76
2023/06/23 06:05:45;;;;;;;;;;;;;;;23.56;39.44;100323.63;4950853;28;99436;-73
2023/06/23 06:08:12;;;;;;;;;;;;;;;23.67;39.38;100326.66;4929055;28;98365;-73
2023/06/23 06:10:39;;;;;;;;;;;;;;;23.81;39.35;100326.16;4935157;28;98393;-73
2023/06/23 06:13:07;;;;;;;;;;;;;;;23.89;39.27;100320.44;4935668;28;98089;-73
2023/06/23 06:15:34;;;;;;;;;;;;;;;23.93;39.20;100315.84;4936492;28;98734;-73
2023/06/23 06:18:03;;;;;;;;;;;;;;;23.92;39.57;100328.00;4937056;28;99285;-73
2023/06/23 06:20:33;;;;;;;;;;;;;;;23.96;39.62;100317.84;4934054;28;98122;-72
2023/06/23 06:23:03;;;;;;;;;;;;;;;24.07;39.23;100315.34;4966426;28;98508;-73
2023/06/23 06:25:32;;;;;;;;;;;;;;;24.20;39.33;100319.53;4949725;28;98673;-73
2023/06/23 06:27:58;;;;;;;;;;;;;;;24.25;39.23;100310.19;4931521;28;99673;-75
2023/06/23 06:30:27;;;;;;;;;;;;;;;24.29;39.34;100313.81;4936752;28;98417;-76
2023/06/23 06:32:54;;;;;;;;;;;;;;;24.41;39.34;100299.13;4946945;28;99521;-73
2023/06/23 06:35:26;;;;;;;;;;;;;;;26.20;37.61;100310.97;4928504;28;97885;-71
2023/06/23 06:37:55;;;;;;;;;;;;;;;26.25;37.94;100307.84;4940338;28;98195;-73
2023/06/23 06:40:22;;;;;;;;;;;;;;;26.59;37.50;100307.88;4926179;28;98281;-73
2023/06/23 06:42:50;;;;;;;;;;;;;;;27.22;37.29;100314.38;4938081;28;98254;-76
2023/06/23 06:45:19;;;;;;;;;;;;;;;27.27;37.51;100309.25;4927095;28;100467;-75
2023/06/23 06:47:46;;;;;;;;;;;;;;;27.71;37.30;100305.59;4925914;28;98142;-76
2023/06/23 06:50:16;;;;;;;;;;;;;;;27.97;36.99;100301.78;4937842;28;98300;-73
2023/06/23 06:52:43;;;;;;;;;;;;;;;28.89;36.62;100294.91;4924586;28;98105;-75
2023/06/23 06:55:20;;;;;;;;;;;;;;;28.71;36.94;100294.09;4924970;28;99265;-73
2023/06/23 06:57:51;;;;;;;;;;;;;;;29.94;36.08;100293.56;4927615;28;98139;-76
2023/06/23 07:00:18;;;;;;;;;;;;;;;29.66;36.71;100291.69;4954719;28;100398;-76
2023/06/23 07:02:45;;;;;;;;;;;;;;;29.57;37.19;100289.31;4920999;28;98190;-73
2023/06/23 07:05:13;;;;;;;;;;;;;;;29.38;37.06;100290.53;4931048;28;97947;-76
2023/06/23 07:07:40;;;;;;;;;;;;;;;28.97;37.55;100292.94;4947482;27;98153;-76
2023/06/23 07:10:06;;;;;;;;;;;;;;;28.60;38.21;100299.63;4933949;28;112818;-73
2023/06/23 07:12:33;;;;;;;;;;;;;;;28.36;38.26;100303.91;4929251;28;98148;-77
2023/06/23 07:15:01;;;;;;;;;;;;;;;28.31;38.22;100309.81;4932032;28;97983;-76
2023/06/23 07:17:27;;;;;;;;;;;;;;;28.22;38.52;100296.34;4922937;28;98345;-77
2023/06/23 07:19:54;;;;;;;;;;;;;;;28.04;38.57;100290.75;4925609;28;98118;-72
2023/06/23 07:22:20;;;;;;;;;;;;;;;27.87;38.83;100285.94;4929259;28;98137;-72
2023/06/23 07:24:46;;;;;;;;;;;;;;;27.78;38.69;100291.00;4929084;27;97933;-72
2023/06/23 07:27:14;;;;;;;;;;;;;;;27.64;38.78;100288.94;4946714;28;97977;-72
2023/06/23 07:29:41;;;;;;;;;;;;;;;27.57;38.77;100294.44;4944740;28;98172;-76
2023/06/23 07:32:08;;;;;;;;;;;;;;;27.50;39.06;100297.16;4932292;28;98369;-72
2023/06/23 07:34:36;;;;;;;;;;;;;;;27.48;39.02;100302.31;4949048;27;98033;-73
2023/06/23 07:37:04;;;;;;;;;;;;;;;27.51;38.68;100304.28;4952223;28;98452;-78
2023/06/23 07:39:30;;;;;;;;;;;;;;;27.65;38.52;100312.69;4937002;28;98461;-77
2023/06/23 07:41:56;;;;;;;;;;;;;;;27.75;38.52;100316.72;4939127;28;98161;-77
2023/06/23 07:44:23;;;;;;;;;;;;;;;28.35;38.19;100318.94;4933055;28;98091;-77
2023/06/23 07:46:49;;;;;;;;;;;;;;;29.80;36.92;100324.97;4949090;27;97881;-72
2023/06/23 07:49:15;;;;;;;;;;;;;;;29.49;37.24;100332.94;4946333;28;128858;-77
2023/06/23 07:51:42;;;;;;;;;;;;;;;29.61;37.38;100333.75;4948805;28;99149;-77
2023/06/23 07:54:10;;;;;;;;;;;;;;;29.31;37.57;100334.94;4947803;28;98321;-77
2023/06/23 07:56:37;;;;;;;;;;;;;;;29.62;37.28;100338.88;4943368;28;99531;-72
2023/06/23 07:59:03;;;;;;;;;;;;;;;30.79;36.43;100339.59;4948506;28;98205;-79
2023/06/23 08:01:30;;;;;;;;;;;;;;;30.42;37.17;100338.22;4947113;27;98367;-72
2023/06/23 08:03:56;;;;;;;;;;;;;;;30.54;37.02;100336.97;4921654;27;99802;-71
2023/06/23 08:06:25;;;;;;;;;;;;;;;30.61;37.24;100333.31;4944850;28;98150;-78
2023/06/23 08:08:51;;;;;;;;;;;;;;;30.49;37.44;100327.03;4931539;28;98032;-78
2023/06/23 08:11:18;;;;;;;;;;;;;;;30.56;37.46;100329.78;4926146;27;98034;-78
2023/06/23 08:13:44;;;;;;;;;;;;;;;32.05;35.79;100326.09;4926522;27;99751;-78
2023/06/23 08:16:10;;;;;;;;;;;;;;;31.92;36.39;100336.22;4930656;27;98271;-72
2023/06/23 08:18:36;;;;;;;;;;;;;;;30.89;37.47;100332.38;4942762;27;100261;-72
2023/06/23 08:21:03;;;;;;;;;;;;;;;30.17;38.00;100324.44;4924215;28;98111;-79
2023/06/23 08:23:29;;;;;;;;;;;;;;;29.67;38.32;100329.34;4927044;27;99393;-79
2023/06/23 08:25:56;;;;;;;;;;;;;;;29.69;38.17;100338.88;4954421;28;98870;-72
2023/06/23 08:28:22;;;;;;;;;;;;;;;32.86;35.05;100334.53;4928738;28;98239;-72
2023/06/23 08:30:48;;;;;;;;;;;;;;;35.31;33.36;100343.13;4932460;27;98551;-72
2023/06/23 08:33:15;;;;;;;;;;;;;;;36.13;33.09;100338.09;4945550;27;98968;-77
2023/06/23 08:35:42;;;;;;;;;;;;;;;37.62;32.41;100347.78;4932336;28;98152;-72
2023/06/23 08:38:12;;;;;;;;;;;;;;;37.41;33.38;100352.09;4931878;28;98172;-72
2023/06/23 08:40:40;;;;;;;;;;;;;;;35.23;35.29;100331.34;4966743;27;98991;-72
2023/06/23 08:43:08;;;;;;;;;;;;;;;34.01;36.50;100340.91;4924267;28;97893;-79
2023/06/23 08:45:34;;;;;;;;;;;;;;;33.54;37.05;100338.22;4934277;27;98044;-80
2023/06/23 08:48:00;;;;;;;;;;;;;;;32.75;37.33;100339.50;4923245;28;98291;-79
2023/06/23 08:50:28;;;;;;;;;;;;;;;34.38;35.47;100334.13;4940654;28;98262;-72
2023/06/23 08:52:58;;;;;;;;;;;;;;;33.37;36.34;100352.06;4930779;27;97966;-72
2023/06/23 08:55:35;;;;;;;;;;;;;;;32.37;37.70;100356.34;4956584;28;98386;-73
2023/06/23 08:58:03;;;;;;;;;;;;;;;31.73;37.85;100357.88;4925150;28;100324;-80
2023/06/23 09:00:29;;;;;;;;;;;;;;;31.20;38.22;100355.56;4962182;27;98649;-81
2023/06/23 09:02:56;;;;;;;;;;;;;;;30.77;38.34;100361.44;4931615;28;98406;-80
2023/06/23 09:05:23;;;;;;;;;;;;;;;30.47;38.59;100367.56;4925821;28;98071;-75
2023/06/23 09:07:50;;;;;;;;;;;;;;;30.23;38.55;100377.63;4943609;27;97958;-71
2023/06/23 09:10:20;;;;;;;;;;;;;;;31.24;37.46;100375.81;4929280;28;98415;-72
2023/06/23 09:13:23;;;;;;;;;;;;;;;32.22;36.22;100391.97;4929635;27;98113;-71
2023/06/23 09:15:49;;;;;;;;;;;;;;;32.02;36.62;100393.81;4934371;27;98297;-79
2023/06/23 09:18:16;;;;;;;;;;;;;;;31.50;37.30;100405.06;4933252;28;99116;-72
2023/06/23 09:20:48;;;;;;;;;;;;;;;31.04;37.55;100403.41;4929440;28;101101;-79
2023/06/23 09:23:25;;;;;;;;;;;;;;;30.59;38.01;100392.13;4936638;28;98290;-77
2023/06/23 09:25:56;;;;;;;;;;;;;;;30.17;38.20;100398.69;4953046;27;98617;-72
2023/06/23 09:28:27;;;;;;;;;;;;;;;29.74;38.62;100410.66;4951021;27;98075;-79
2023/06/23 09:30:57;;;;;;;;;;;;;;;29.39;38.81;100424.53;4935214;27;98187;-79
2023/06/23 09:33:24;;;;;;;;;;;;;;;29.14;38.91;100419.75;4941320;28;98015;-79
2023/06/23 09:35:55;;;;;;;;;;;;;;;29.05;38.67;100425.69;4943158;28;98213;-79
2023/06/23 09:38:25;;;;;;;;;;;;;;;29.02;38.94;100426.47;4933712;28;98417;-80
2023/06/23 09:41:12;;;;;;;;;;;;;;;28.98;38.35;100424.91;4941987;27;100124;-73
2023/06/23 09:43:47;;;;;;;;;;;;;;;28.89;38.76;100438.31;4941560;27;98142;-72
2023/06/23 09:46:18;;;;;;;;;;;;;;;28.78;38.50;100433.53;4933106;28;98114;-71
2023/06/23 09:48:46;;;;;;;;;;;;;;;28.67;38.51;100429.13;4934173;27;98122;-72
2023/06/23 09:51:14;;;;;;;;;;;;;;;28.48;38.73;100436.59;4949097;28;98499;-80
2023/06/23 09:53:42;;;;;;;;;;;;;;;28.32;38.98;100441.63;4935011;28;98899;-72
2023/06/23 09:56:19;;;;;;;;;;;;;;;28.26;38.88;100437.66;4931922;28;98133;-79
2023/06/23 09:58:47;;;;;;;;;;;;;;;28.25;38.84;100433.28;4950744;27;98186;-78
2023/06/23 10:01:20;;;;;;;;;;;;;;;28.20;38.63;100434.44;4924365;28;97994;-72
2023/06/23 10:03:47;;;;;;;;;;;;;;;28.00;38.63;100436.72;4946982;27;98173;-71
2023/06/23 10:06:28;;;;;;;;;;;;;;;27.87;38.82;100439.03;4945705;28;98427;-71
2023/06/23 10:08:57;;;;;;;;;;;;;;;28.00;38.80;100445.03;4960985;28;98819;-79
2023/06/23 10:11:30;;;;;;;;;;;;;;;28.22;38.35;100445.13;4943209;28;98535;-72
2023/06/23 10:14:14;;;;;;;;;;;;;;;28.52;38.09;100454.03;4924353;27;99694;-72
2023/06/23 10:16:44;;;;;;;;;;;;;;;29.35;37.16;100452.28;4934796;27;98154;-79
2023/06/23 10:19:12;;;;;;;;;;;;;;;32.61;34.32;100452.06;4931048;27;98015;-78
2023/06/23 10:21:41;;;;;;;;;;;;;;;34.78;32.44;100457.97;4931060;27;98014;-78
2023/06/23 10:24:14;;;;;;;;;;;;;;;34.21;33.75;100461.91;4927185;28;99091;-72
2023/06/23 10:26:40;;;;;;;;;;;;;;;35.33;33.24;100450.72;4932558;27;101643;-72
2023/06/23 10:29:12;;;;;;;;;;;;;;;34.09;34.94;100459.75;4933509;28;98450;-72
2023/06/23 10:31:38;;;;;;;;;;;;;;;35.35;33.60;100450.25;4946923;27;100700;-72
2023/06/23 10:34:05;;;;;;;;;;;;;;;35.67;33.61;100445.88;4934960;28;98160;-79
2023/06/23 10:36:32;;;;;;;;;;;;;;;34.84;34.93;100447.81;4926148;28;98630;-72
2023/06/23 10:39:03;;;;;;;;;;;;;;;33.86;35.83;100447.38;4932954;28;98101;-78
2023/06/23 10:41:29;;;;;;;;;;;;;;;33.57;35.82;100460.28;4950097;28;98317;-77
2023/06/23 10:43:56;;;;;;;;;;;;;;;33.52;36.13;100460.75;4933114;27;97997;-77
2023/06/23 10:46:23;;;;;;;;;;;;;;;33.34;35.76;100466.59;4933906;28;98130;-79
2023/06/23 10:48:49;;;;;;;;;;;;;;;33.02;35.94;100467.09;4932792;27;98191;-72
2023/06/23 10:51:16;;;;;;;;;;;;;;;32.64;36.42;100462.38;4931655;28;98165;-78
2023/06/23 10:53:55;;;;;;;;;;;;;;;32.30;36.91;100459.56;4949208;28;98381;-72
2023/06/23 10:56:30;;;;;;;;;;;;;;;32.15;36.63;100455.38;4934475;28;98179;-72
2023/06/23 10:58:57;;;;;;;;;;;;;;;33.31;35.17;100464.66;4956569;27;99250;-77
2023/06/23 11:01:26;;;;;;;;;;;;;;;34.12;34.93;100454.09;4932032;28;98485;-77
2023/06/23 11:04:03;;;;;;;;;;;;;;;36.78;32.25;100457.63;4934077;27;98038;-72
2023/06/23 11:06:34;;;;;;;;;;;;;;;37.91;31.70;100455.16;4946317;28;98518;-78
2023/06/23 11:09:00;;;;;;;;;;;;;;;36.81;33.42;100453.91;4952054;28;98666;-77
2023/06/23 11:11:32;;;;;;;;;;;;;;;38.75;31.66;100452.47;4928583;28;98210;-79
2023/06/23 11:13:58;;;;;;;;;;;;;;;39.45;31.22;100452.09;4944824;27;98076;-80
2023/06/23 11:16:32;;;;;;;;;;;;;;;37.88;32.70;100458.09;4932089;28;98315;-73
2023/06/23 11:18:59;;;;;;;;;;;;;;;37.39;33.30;100458.53;4932428;27;98468;-78
2023/06/23 11:21:29;;;;;;;;;;;;;;;37.36;33.47;100468.63;4927208;28;99110;-78
2023/06/23 11:24:28;;;;;;;;;;;;;;;36.36;35.05;100457.66;4949166;28;98072;-73
2023/06/23 11:27:02;;;;;;;;;;;;;;;35.17;35.92;100447.88;4928938;28;97994;-73
2023/06/23 11:29:31;;;;;;;;;;;;;;;34.31;36.37;100458.13;4941665;28;98044;-79
2023/06/23 11:32:11;;;;;;;;;;;;;;;33.65;36.61;100454.13;4933632;27;98232;-73
2023/06/23 11:35:00;;;;;;;;;;;;;;;33.22;36.97;100449.22;4960177;27;98302;-77
2023/06/23 11:37:31;;;;;;;;;;;;;;;33.34;36.54;100453.44;4950437;28;98011;-78
2023/06/23 11:39:58;;;;;;;;;;;;;;;34.07;35.64;100460.16;4949335;27;98046;-73
2023/06/23 11:42:24;;;;;;;;;;;;;;;33.22;36.70;100456.81;4946926;28;98238;-72
2023/06/23 11:44:53;;;;;;;;;;;;;;;32.54;37.05;100466.13;4927344;28;98198;-78
2023/06/23 11:47:28;;;;;;;;;;;;;;;32.00;37.46;100465.91;4932248;28;97988;-77
2023/06/23 11:49:56;;;;;;;;;;;;;;;31.53;37.73;100463.50;4929419;27;98249;-73
2023/06/23 11:52:23;;;;;;;;;;;;;;;31.19;37.89;100468.88;4920840;28;98121;-79
2023/06/23 11:54:51;;;;;;;;;;;;;;;30.95;37.81;100475.41;4949229;27;98182;-78
2023/06/23 11:57:20;;;;;;;;;;;;;;;30.83;37.63;100470.31;4930086;28;98980;-79
2023/06/23 11:59:47;;;;;;;;;;;;;;;30.76;37.72;100468.34;4923909;28;100302;-78
2023/06/23 12:02:15;;;;;;;;;;;;;;;30.57;37.65;100475.16;4945920;28;97961;-72
2023/06/23 12:04:44;;;;;;;;;;;;;;;30.32;37.95;100478.03;4927815;27;98322;-73
2023/06/23 12:07:11;;;;;;;;;;;;;;;30.26;37.81;100479.63;4929552;28;98263;-72
2023/06/23 12:09:39;;;;;;;;;;;;;;;30.42;37.50;100484.75;4923919;28;98207;-77
2023/06/23 12:12:06;;;;;;;;;;;;;;;30.44;37.30;100480.38;4944102;28;99480;-79
2023/06/23 12:14:37;;;;;;;;;;;;;;;30.20;37.41;100475.69;4917294;28;98305;-73
2023/06/23 12:17:12;;;;;;;;;;;;;;;29.87;37.60;100488.00;4928250;28;98043;-73
2023/06/23 12:19:39;;;;;;;;;;;;;;;29.57;37.85;100480.88;4921867;28;98249;-72
2023/06/23 12:22:17;;;;;;;;;;;;;;;29.26;38.19;100485.19;4935194;28;98073;-80
2023/06/23 12:24:44;;;;;;;;;;;;;;;28.96;38.45;100491.81;4935598;28;98304;-78
2023/06/23 12:27:11;;;;;;;;;;;;;;;28.84;38.33;100495.72;4930590;28;98303;-73
2023/06/23 12:29:38;;;;;;;;;;;;;;;28.90;38.18;100493.38;4925976;28;98150;-73
2023/06/23 12:32:05;;;;;;;;;;;;;;;28.97;37.90;100501.78;4941371;28;98364;-72
2023/06/23 12:34:45;;;;;;;;;;;;;;;28.91;37.79;100508.06;4926868;28;98420;-72
2023/06/23 12:37:12;;;;;;;;;;;;;;;28.68;37.83;100508.34;4922301;28;98037;-79
2023/06/23 12:39:38;;;;;;;;;;;;;;;28.43;38.29;100520.13;4920241;28;100031;-79
2023/06/23 12:42:09;;;;;;;;;;;;;;;28.24;38.23;100514.81;4929395;28;98125;-73
2023/06/23 12:44:38;;;;;;;;;;;;;;;28.07;38.10;100514.31;4931454;28;98942;-75
2023/06/23 12:47:11;;;;;;;;;;;;;;;27.94;38.21;100515.00;4944302;28;98498;-78
2023/06/23 12:49:38;;;;;;;;;;;;;;;27.81;38.42;100512.53;4948554;28;99101;-73